sensor_id;sensor_type;location;lat;lon;timestamp;temperature;humidity
25945;SHT31;13742;49.306;8.636;2023-05-07T00:00:09;16.64;72.73
25945;SHT31;13742;49.306;8.636;2023-05-07T00:01:08;16.40;73.25
25945;SHT31;13742;49.306;8.636;2023-05-07T00:02:08;16.30;73.88
25945;SHT31;13742;49.306;8.636;2023-05-07T00:03:08;16.32;74.02
25945;SHT31;13742;49.306;8.636;2023-05-07T00:04:08;16.36;73.72
25945;SHT31;13742;49.306;8.636;2023-05-07T00:05:08;16.20;74.27
25945;SHT31;13742;49.306;8.636;2023-05-07T00:06:08;16.18;74.21
25945;SHT31;13742;49.306;8.636;2023-05-07T00:07:08;16.18;74.11
25945;SHT31;13742;49.306;8.636;2023-05-07T00:08:08;16.18;74.22
25945;SHT31;13742;49.306;8.636;2023-05-07T00:09:08;15.95;74.56
25945;SHT31;13742;49.306;8.636;2023-05-07T00:10:09;15.86;74.77
25945;SHT31;13742;49.306;8.636;2023-05-07T00:11:08;15.89;74.88
25945;SHT31;13742;49.306;8.636;2023-05-07T00:12:08;15.95;74.57
25945;SHT31;13742;49.306;8.636;2023-05-07T00:13:08;15.95;74.39
25945;SHT31;13742;49.306;8.636;2023-05-07T00:14:08;16.02;73.44
25945;SHT31;13742;49.306;8.636;2023-05-07T00:15:09;16.08;73.70
25945;SHT31;13742;49.306;8.636;2023-05-07T00:16:08;16.11;73.59
25945;SHT31;13742;49.306;8.636;2023-05-07T00:17:08;16.12;73.54
25945;SHT31;13742;49.306;8.636;2023-05-07T00:18:08;16.13;73.40
25945;SHT31;13742;49.306;8.636;2023-05-07T00:19:08;16.15;72.95
25945;SHT31;13742;49.306;8.636;2023-05-07T00:20:08;16.19;72.94
25945;SHT31;13742;49.306;8.636;2023-05-07T00:21:08;16.20;72.98
25945;SHT31;13742;49.306;8.636;2023-05-07T00:22:08;16.25;72.26
25945;SHT31;13742;49.306;8.636;2023-05-07T00:23:09;16.22;72.96
25945;SHT31;13742;49.306;8.636;2023-05-07T00:24:08;16.26;72.40
25945;SHT31;13742;49.306;8.636;2023-05-07T00:25:08;16.30;72.28
25945;SHT31;13742;49.306;8.636;2023-05-07T00:26:08;16.33;72.30
25945;SHT31;13742;49.306;8.636;2023-05-07T00:27:08;16.30;71.67
25945;SHT31;13742;49.306;8.636;2023-05-07T00:28:08;16.35;72.18
25945;SHT31;13742;49.306;8.636;2023-05-07T00:29:08;16.33;72.70
25945;SHT31;13742;49.306;8.636;2023-05-07T00:30:09;16.32;72.45
25945;SHT31;13742;49.306;8.636;2023-05-07T00:31:08;16.32;72.28
25945;SHT31;13742;49.306;8.636;2023-05-07T00:32:08;16.37;72.65
25945;SHT31;13742;49.306;8.636;2023-05-07T00:33:08;16.33;72.75
25945;SHT31;13742;49.306;8.636;2023-05-07T00:34:08;16.37;72.07
25945;SHT31;13742;49.306;8.636;2023-05-07T00:35:08;16.37;72.04
25945;SHT31;13742;49.306;8.636;2023-05-07T00:36:08;16.36;72.56
25945;SHT31;13742;49.306;8.636;2023-05-07T00:37:08;16.33;72.99
25945;SHT31;13742;49.306;8.636;2023-05-07T00:38:08;16.35;72.80
25945;SHT31;13742;49.306;8.636;2023-05-07T00:39:08;16.35;72.32
25945;SHT31;13742;49.306;8.636;2023-05-07T00:40:08;16.35;72.84
25945;SHT31;13742;49.306;8.636;2023-05-07T00:41:08;16.36;72.30
25945;SHT31;13742;49.306;8.636;2023-05-07T00:42:08;16.33;72.69
25945;SHT31;13742;49.306;8.636;2023-05-07T00:43:08;16.29;73.25
25945;SHT31;13742;49.306;8.636;2023-05-07T00:44:08;16.30;73.04
25945;SHT31;13742;49.306;8.636;2023-05-07T00:45:09;16.23;73.29
25945;SHT31;13742;49.306;8.636;2023-05-07T00:46:08;16.26;72.77
25945;SHT31;13742;49.306;8.636;2023-05-07T00:47:08;16.26;73.25
25945;SHT31;13742;49.306;8.636;2023-05-07T00:48:08;16.25;73.19
25945;SHT31;13742;49.306;8.636;2023-05-07T00:49:08;16.25;73.22
25945;SHT31;13742;49.306;8.636;2023-05-07T00:50:08;16.18;73.37
25945;SHT31;13742;49.306;8.636;2023-05-07T00:51:09;16.15;73.60
25945;SHT31;13742;49.306;8.636;2023-05-07T00:52:14;16.16;73.48
25945;SHT31;13742;49.306;8.636;2023-05-07T00:53:08;16.12;73.54
25945;SHT31;13742;49.306;8.636;2023-05-07T00:54:08;16.16;73.10
25945;SHT31;13742;49.306;8.636;2023-05-07T00:55:09;16.12;73.30
25945;SHT31;13742;49.306;8.636;2023-05-07T00:56:08;16.13;72.93
25945;SHT31;13742;49.306;8.636;2023-05-07T00:57:11;16.12;72.53
25945;SHT31;13742;49.306;8.636;2023-05-07T00:58:08;16.12;73.13
25945;SHT31;13742;49.306;8.636;2023-05-07T00:59:08;16.11;72.65
25945;SHT31;13742;49.306;8.636;2023-05-07T01:00:09;16.11;72.44
25945;SHT31;13742;49.306;8.636;2023-05-07T01:01:08;16.12;72.16
25945;SHT31;13742;49.306;8.636;2023-05-07T01:02:08;16.11;73.21
25945;SHT31;13742;49.306;8.636;2023-05-07T01:03:08;16.11;72.53
25945;SHT31;13742;49.306;8.636;2023-05-07T01:04:08;16.11;72.43
25945;SHT31;13742;49.306;8.636;2023-05-07T01:05:13;16.11;72.53
25945;SHT31;13742;49.306;8.636;2023-05-07T01:06:09;16.09;72.29
25945;SHT31;13742;49.306;8.636;2023-05-07T01:07:08;16.11;72.34
25945;SHT31;13742;49.306;8.636;2023-05-07T01:08:08;16.09;72.54
25945;SHT31;13742;49.306;8.636;2023-05-07T01:09:09;16.05;73.00
25945;SHT31;13742;49.306;8.636;2023-05-07T01:10:09;16.05;72.68
25945;SHT31;13742;49.306;8.636;2023-05-07T01:11:09;16.08;72.81
25945;SHT31;13742;49.306;8.636;2023-05-07T01:12:08;16.07;74.03
25945;SHT31;13742;49.306;8.636;2023-05-07T01:13:09;16.04;73.64
25945;SHT31;13742;49.306;8.636;2023-05-07T01:14:09;16.05;73.97
25945;SHT31;13742;49.306;8.636;2023-05-07T01:15:08;16.02;74.32
25945;SHT31;13742;49.306;8.636;2023-05-07T01:16:09;15.99;73.63
25945;SHT31;13742;49.306;8.636;2023-05-07T01:17:08;15.99;73.30
25945;SHT31;13742;49.306;8.636;2023-05-07T01:18:08;16.00;72.97
25945;SHT31;13742;49.306;8.636;2023-05-07T01:19:09;15.99;73.06
25945;SHT31;13742;49.306;8.636;2023-05-07T01:20:09;16.00;73.00
25945;SHT31;13742;49.306;8.636;2023-05-07T01:21:10;16.02;73.28
25945;SHT31;13742;49.306;8.636;2023-05-07T01:22:09;15.98;74.08
25945;SHT31;13742;49.306;8.636;2023-05-07T01:23:08;15.99;73.49
25945;SHT31;13742;49.306;8.636;2023-05-07T01:24:09;15.99;74.23
25945;SHT31;13742;49.306;8.636;2023-05-07T01:25:08;15.98;74.27
25945;SHT31;13742;49.306;8.636;2023-05-07T01:26:08;15.98;73.67
25945;SHT31;13742;49.306;8.636;2023-05-07T01:27:08;15.91;74.18
25945;SHT31;13742;49.306;8.636;2023-05-07T01:28:08;15.86;73.99
25945;SHT31;13742;49.306;8.636;2023-05-07T01:29:08;15.88;74.01
25945;SHT31;13742;49.306;8.636;2023-05-07T01:30:08;15.89;73.62
25945;SHT31;13742;49.306;8.636;2023-05-07T01:31:09;15.89;73.49
25945;SHT31;13742;49.306;8.636;2023-05-07T01:32:08;15.89;73.68
25945;SHT31;13742;49.306;8.636;2023-05-07T01:33:13;15.89;74.07
25945;SHT31;13742;49.306;8.636;2023-05-07T01:34:10;15.89;74.06
25945;SHT31;13742;49.306;8.636;2023-05-07T01:35:11;15.88;74.31
25945;SHT31;13742;49.306;8.636;2023-05-07T01:36:08;15.86;73.85
25945;SHT31;13742;49.306;8.636;2023-05-07T01:37:08;15.88;74.38
25945;SHT31;13742;49.306;8.636;2023-05-07T01:38:08;15.86;73.65
25945;SHT31;13742;49.306;8.636;2023-05-07T01:39:09;15.81;73.86
25945;SHT31;13742;49.306;8.636;2023-05-07T01:40:08;15.79;73.19
25945;SHT31;13742;49.306;8.636;2023-05-07T01:41:08;15.81;73.13
25945;SHT31;13742;49.306;8.636;2023-05-07T01:42:08;15.82;72.99
25945;SHT31;13742;49.306;8.636;2023-05-07T01:43:09;15.84;73.81
25945;SHT31;13742;49.306;8.636;2023-05-07T01:44:10;15.84;73.64
25945;SHT31;13742;49.306;8.636;2023-05-07T01:45:09;15.84;73.80
25945;SHT31;13742;49.306;8.636;2023-05-07T01:46:10;15.84;74.00
25945;SHT31;13742;49.306;8.636;2023-05-07T01:47:08;15.82;73.63
25945;SHT31;13742;49.306;8.636;2023-05-07T01:48:10;15.81;74.29
25945;SHT31;13742;49.306;8.636;2023-05-07T01:49:08;15.79;74.38
25945;SHT31;13742;49.306;8.636;2023-05-07T01:50:08;15.82;74.10
25945;SHT31;13742;49.306;8.636;2023-05-07T01:51:08;15.81;74.13
25945;SHT31;13742;49.306;8.636;2023-05-07T01:52:10;15.79;73.94
25945;SHT31;13742;49.306;8.636;2023-05-07T01:53:08;15.79;73.41
25945;SHT31;13742;49.306;8.636;2023-05-07T01:54:08;15.77;74.03
25945;SHT31;13742;49.306;8.636;2023-05-07T01:55:08;15.75;73.49
25945;SHT31;13742;49.306;8.636;2023-05-07T01:56:08;15.78;73.60
25945;SHT31;13742;49.306;8.636;2023-05-07T01:57:08;15.77;73.54
25945;SHT31;13742;49.306;8.636;2023-05-07T01:58:08;15.77;74.21
25945;SHT31;13742;49.306;8.636;2023-05-07T01:59:08;15.77;73.89
25945;SHT31;13742;49.306;8.636;2023-05-07T02:00:09;15.75;74.02
25945;SHT31;13742;49.306;8.636;2023-05-07T02:01:08;15.72;74.09
25945;SHT31;13742;49.306;8.636;2023-05-07T02:02:08;15.74;73.82
25945;SHT31;13742;49.306;8.636;2023-05-07T02:03:08;15.74;73.69
25945;SHT31;13742;49.306;8.636;2023-05-07T02:04:08;15.74;73.78
25945;SHT31;13742;49.306;8.636;2023-05-07T02:05:08;15.74;73.71
25945;SHT31;13742;49.306;8.636;2023-05-07T02:06:08;15.72;73.32
25945;SHT31;13742;49.306;8.636;2023-05-07T02:07:08;15.72;73.77
25945;SHT31;13742;49.306;8.636;2023-05-07T02:08:08;15.72;73.65
25945;SHT31;13742;49.306;8.636;2023-05-07T02:09:09;15.72;74.06
25945;SHT31;13742;49.306;8.636;2023-05-07T02:10:09;15.70;73.43
25945;SHT31;13742;49.306;8.636;2023-05-07T02:11:08;15.72;73.25
25945;SHT31;13742;49.306;8.636;2023-05-07T02:12:08;15.71;73.52
25945;SHT31;13742;49.306;8.636;2023-05-07T02:13:08;15.74;73.64
25945;SHT31;13742;49.306;8.636;2023-05-07T02:14:08;15.68;73.99
25945;SHT31;13742;49.306;8.636;2023-05-07T02:15:08;15.62;74.12
25945;SHT31;13742;49.306;8.636;2023-05-07T02:16:08;15.54;74.31
25945;SHT31;13742;49.306;8.636;2023-05-07T02:17:08;15.51;74.54
25945;SHT31;13742;49.306;8.636;2023-05-07T02:18:09;15.53;74.57
25945;SHT31;13742;49.306;8.636;2023-05-07T02:19:08;15.53;74.61
25945;SHT31;13742;49.306;8.636;2023-05-07T02:20:13;15.53;74.01
25945;SHT31;13742;49.306;8.636;2023-05-07T02:21:08;15.56;74.06
25945;SHT31;13742;49.306;8.636;2023-05-07T02:22:09;15.48;74.49
25945;SHT31;13742;49.306;8.636;2023-05-07T02:23:08;15.50;74.58
25945;SHT31;13742;49.306;8.636;2023-05-07T02:24:08;15.46;74.48
25945;SHT31;13742;49.306;8.636;2023-05-07T02:25:08;15.47;74.49
25945;SHT31;13742;49.306;8.636;2023-05-07T02:26:08;15.44;74.51
25945;SHT31;13742;49.306;8.636;2023-05-07T02:27:08;15.46;74.51
25945;SHT31;13742;49.306;8.636;2023-05-07T02:28:08;15.41;74.66
25945;SHT31;13742;49.306;8.636;2023-05-07T02:29:08;15.41;74.11
25945;SHT31;13742;49.306;8.636;2023-05-07T02:30:08;15.41;73.83
25945;SHT31;13742;49.306;8.636;2023-05-07T02:31:08;15.39;74.76
25945;SHT31;13742;49.306;8.636;2023-05-07T02:32:08;15.31;74.90
25945;SHT31;13742;49.306;8.636;2023-05-07T02:33:08;15.29;74.63
25945;SHT31;13742;49.306;8.636;2023-05-07T02:34:08;15.27;74.47
25945;SHT31;13742;49.306;8.636;2023-05-07T02:35:09;15.27;74.26
25945;SHT31;13742;49.306;8.636;2023-05-07T02:36:12;15.21;74.22
25945;SHT31;13742;49.306;8.636;2023-05-07T02:37:08;15.21;74.94
25945;SHT31;13742;49.306;8.636;2023-05-07T02:38:10;15.07;75.34
25945;SHT31;13742;49.306;8.636;2023-05-07T02:39:08;14.96;75.97
25945;SHT31;13742;49.306;8.636;2023-05-07T02:40:09;14.75;76.68
25945;SHT31;13742;49.306;8.636;2023-05-07T02:41:08;14.75;76.45
25945;SHT31;13742;49.306;8.636;2023-05-07T02:42:08;14.79;76.46
25945;SHT31;13742;49.306;8.636;2023-05-07T02:43:09;14.78;76.51
25945;SHT31;13742;49.306;8.636;2023-05-07T02:44:09;14.69;76.84
25945;SHT31;13742;49.306;8.636;2023-05-07T02:45:09;14.57;77.46
25945;SHT31;13742;49.306;8.636;2023-05-07T02:46:09;14.44;77.87
25945;SHT31;13742;49.306;8.636;2023-05-07T02:47:09;14.38;78.27
25945;SHT31;13742;49.306;8.636;2023-05-07T02:48:08;14.40;78.10
25945;SHT31;13742;49.306;8.636;2023-05-07T02:49:08;14.25;78.43
25945;SHT31;13742;49.306;8.636;2023-05-07T02:50:08;14.40;78.31
25945;SHT31;13742;49.306;8.636;2023-05-07T02:51:08;14.44;77.66
25945;SHT31;13742;49.306;8.636;2023-05-07T02:52:08;14.42;77.68
25945;SHT31;13742;49.306;8.636;2023-05-07T02:53:08;14.47;77.63
25945;SHT31;13742;49.306;8.636;2023-05-07T02:54:08;14.54;77.42
25945;SHT31;13742;49.306;8.636;2023-05-07T02:55:08;14.54;76.96
25945;SHT31;13742;49.306;8.636;2023-05-07T02:56:08;14.58;76.92
25945;SHT31;13742;49.306;8.636;2023-05-07T02:57:08;14.58;76.89
25945;SHT31;13742;49.306;8.636;2023-05-07T02:58:08;14.55;77.10
25945;SHT31;13742;49.306;8.636;2023-05-07T02:59:08;14.58;76.91
25945;SHT31;13742;49.306;8.636;2023-05-07T03:00:13;14.62;76.45
25945;SHT31;13742;49.306;8.636;2023-05-07T03:01:08;14.59;76.38
25945;SHT31;13742;49.306;8.636;2023-05-07T03:02:08;14.58;76.68
25945;SHT31;13742;49.306;8.636;2023-05-07T03:03:08;14.57;76.30
25945;SHT31;13742;49.306;8.636;2023-05-07T03:04:08;14.61;76.60
25945;SHT31;13742;49.306;8.636;2023-05-07T03:05:09;14.62;76.70
25945;SHT31;13742;49.306;8.636;2023-05-07T03:06:08;14.61;76.56
25945;SHT31;13742;49.306;8.636;2023-05-07T03:07:08;14.58;76.75
25945;SHT31;13742;49.306;8.636;2023-05-07T03:08:09;14.58;76.24
25945;SHT31;13742;49.306;8.636;2023-05-07T03:09:08;14.62;76.61
25945;SHT31;13742;49.306;8.636;2023-05-07T03:10:08;14.64;76.78
25945;SHT31;13742;49.306;8.636;2023-05-07T03:11:08;14.62;76.49
25945;SHT31;13742;49.306;8.636;2023-05-07T03:12:08;14.62;76.82
25945;SHT31;13742;49.306;8.636;2023-05-07T03:13:08;14.62;77.10
25945;SHT31;13742;49.306;8.636;2023-05-07T03:14:08;14.58;77.30
25945;SHT31;13742;49.306;8.636;2023-05-07T03:15:09;14.55;77.17
25945;SHT31;13742;49.306;8.636;2023-05-07T03:16:08;14.57;77.30
25945;SHT31;13742;49.306;8.636;2023-05-07T03:17:08;14.61;76.74
25945;SHT31;13742;49.306;8.636;2023-05-07T03:18:08;14.61;76.60
25945;SHT31;13742;49.306;8.636;2023-05-07T03:19:08;14.62;77.27
25945;SHT31;13742;49.306;8.636;2023-05-07T03:20:10;14.65;77.62
25945;SHT31;13742;49.306;8.636;2023-05-07T03:21:08;14.64;77.59
25945;SHT31;13742;49.306;8.636;2023-05-07T03:22:08;14.64;77.69
25945;SHT31;13742;49.306;8.636;2023-05-07T03:23:08;14.64;77.03
25945;SHT31;13742;49.306;8.636;2023-05-07T03:24:08;14.64;77.08
25945;SHT31;13742;49.306;8.636;2023-05-07T03:25:09;14.67;76.51
25945;SHT31;13742;49.306;8.636;2023-05-07T03:26:08;14.69;76.94
25945;SHT31;13742;49.306;8.636;2023-05-07T03:27:08;14.68;76.61
25945;SHT31;13742;49.306;8.636;2023-05-07T03:28:08;14.68;77.11
25945;SHT31;13742;49.306;8.636;2023-05-07T03:29:08;14.68;77.07
25945;SHT31;13742;49.306;8.636;2023-05-07T03:30:09;14.69;76.79
25945;SHT31;13742;49.306;8.636;2023-05-07T03:31:08;14.68;76.29
25945;SHT31;13742;49.306;8.636;2023-05-07T03:32:08;14.68;76.21
25945;SHT31;13742;49.306;8.636;2023-05-07T03:33:08;14.65;76.65
25945;SHT31;13742;49.306;8.636;2023-05-07T03:34:08;14.62;76.84
25945;SHT31;13742;49.306;8.636;2023-05-07T03:35:08;14.54;77.52
25945;SHT31;13742;49.306;8.636;2023-05-07T03:36:08;14.57;76.68
25945;SHT31;13742;49.306;8.636;2023-05-07T03:37:08;14.58;77.09
25945;SHT31;13742;49.306;8.636;2023-05-07T03:38:08;14.57;77.12
25945;SHT31;13742;49.306;8.636;2023-05-07T03:39:08;14.59;77.03
25945;SHT31;13742;49.306;8.636;2023-05-07T03:40:10;14.57;76.66
25945;SHT31;13742;49.306;8.636;2023-05-07T03:41:08;14.59;76.80
25945;SHT31;13742;49.306;8.636;2023-05-07T03:42:08;14.57;77.49
25945;SHT31;13742;49.306;8.636;2023-05-07T03:43:08;14.51;77.66
25945;SHT31;13742;49.306;8.636;2023-05-07T03:44:08;14.54;76.89
25945;SHT31;13742;49.306;8.636;2023-05-07T03:45:08;14.55;77.07
25945;SHT31;13742;49.306;8.636;2023-05-07T03:46:08;14.54;77.46
25945;SHT31;13742;49.306;8.636;2023-05-07T03:47:08;14.52;77.55
25945;SHT31;13742;49.306;8.636;2023-05-07T03:48:08;14.51;77.46
25945;SHT31;13742;49.306;8.636;2023-05-07T03:49:08;14.52;77.69
25945;SHT31;13742;49.306;8.636;2023-05-07T03:50:09;14.50;77.11
25945;SHT31;13742;49.306;8.636;2023-05-07T03:51:08;14.52;76.88
25945;SHT31;13742;49.306;8.636;2023-05-07T03:52:08;14.52;77.44
25945;SHT31;13742;49.306;8.636;2023-05-07T03:53:08;14.52;76.89
25945;SHT31;13742;49.306;8.636;2023-05-07T03:54:08;14.55;77.28
25945;SHT31;13742;49.306;8.636;2023-05-07T03:55:08;14.54;77.73
25945;SHT31;13742;49.306;8.636;2023-05-07T03:56:08;14.55;77.32
25945;SHT31;13742;49.306;8.636;2023-05-07T03:57:08;14.52;77.02
25945;SHT31;13742;49.306;8.636;2023-05-07T03:58:08;14.52;76.78
25945;SHT31;13742;49.306;8.636;2023-05-07T03:59:08;14.52;76.64
25945;SHT31;13742;49.306;8.636;2023-05-07T04:00:09;14.50;77.75
25945;SHT31;13742;49.306;8.636;2023-05-07T04:01:08;14.48;78.13
25945;SHT31;13742;49.306;8.636;2023-05-07T04:02:08;14.44;78.38
25945;SHT31;13742;49.306;8.636;2023-05-07T04:03:08;14.24;79.16
25945;SHT31;13742;49.306;8.636;2023-05-07T04:04:08;14.07;79.57
25945;SHT31;13742;49.306;8.636;2023-05-07T04:05:08;14.11;79.26
25945;SHT31;13742;49.306;8.636;2023-05-07T04:06:08;14.16;79.00
25945;SHT31;13742;49.306;8.636;2023-05-07T04:07:08;14.13;79.26
25945;SHT31;13742;49.306;8.636;2023-05-07T04:08:08;14.09;79.47
25945;SHT31;13742;49.306;8.636;2023-05-07T04:09:08;13.96;79.95
25945;SHT31;13742;49.306;8.636;2023-05-07T04:10:08;14.07;78.97
25945;SHT31;13742;49.306;8.636;2023-05-07T04:11:08;14.13;78.88
25945;SHT31;13742;49.306;8.636;2023-05-07T04:12:08;14.14;78.76
25945;SHT31;13742;49.306;8.636;2023-05-07T04:13:08;14.10;79.67
25945;SHT31;13742;49.306;8.636;2023-05-07T04:14:08;14.13;79.08
25945;SHT31;13742;49.306;8.636;2023-05-07T04:15:08;14.09;79.46
25945;SHT31;13742;49.306;8.636;2023-05-07T04:16:08;14.11;78.71
25945;SHT31;13742;49.306;8.636;2023-05-07T04:17:09;14.13;79.33
25945;SHT31;13742;49.306;8.636;2023-05-07T04:18:08;14.11;79.59
25945;SHT31;13742;49.306;8.636;2023-05-07T04:19:08;14.11;78.99
25945;SHT31;13742;49.306;8.636;2023-05-07T04:20:15;14.16;78.53
25945;SHT31;13742;49.306;8.636;2023-05-07T04:21:14;14.19;78.83
25945;SHT31;13742;49.306;8.636;2023-05-07T04:22:09;14.21;78.78
25945;SHT31;13742;49.306;8.636;2023-05-07T04:23:08;14.23;78.30
25945;SHT31;13742;49.306;8.636;2023-05-07T04:24:08;14.25;78.22
25945;SHT31;13742;49.306;8.636;2023-05-07T04:25:09;14.27;77.83
25945;SHT31;13742;49.306;8.636;2023-05-07T04:26:08;14.34;79.03
25945;SHT31;13742;49.306;8.636;2023-05-07T04:27:08;14.32;79.46
25945;SHT31;13742;49.306;8.636;2023-05-07T04:28:08;14.34;78.54
25945;SHT31;13742;49.306;8.636;2023-05-07T04:29:08;14.34;79.10
25945;SHT31;13742;49.306;8.636;2023-05-07T04:30:08;14.32;79.09
25945;SHT31;13742;49.306;8.636;2023-05-07T04:31:08;14.35;78.52
25945;SHT31;13742;49.306;8.636;2023-05-07T04:32:09;14.37;79.02
25945;SHT31;13742;49.306;8.636;2023-05-07T04:33:08;14.38;79.04
25945;SHT31;13742;49.306;8.636;2023-05-07T04:34:09;14.34;78.40
25945;SHT31;13742;49.306;8.636;2023-05-07T04:35:08;14.38;78.80
25945;SHT31;13742;49.306;8.636;2023-05-07T04:36:08;14.42;78.46
25945;SHT31;13742;49.306;8.636;2023-05-07T04:37:08;14.44;78.85
25945;SHT31;13742;49.306;8.636;2023-05-07T04:38:08;14.47;78.92
25945;SHT31;13742;49.306;8.636;2023-05-07T04:39:08;14.45;78.65
25945;SHT31;13742;49.306;8.636;2023-05-07T04:40:08;14.48;78.96
25945;SHT31;13742;49.306;8.636;2023-05-07T04:41:08;14.51;78.43
25945;SHT31;13742;49.306;8.636;2023-05-07T04:42:08;14.52;78.72
25945;SHT31;13742;49.306;8.636;2023-05-07T04:43:09;14.54;78.30
25945;SHT31;13742;49.306;8.636;2023-05-07T04:44:09;14.55;78.70
25945;SHT31;13742;49.306;8.636;2023-05-07T04:45:09;14.58;79.02
25945;SHT31;13742;49.306;8.636;2023-05-07T04:46:08;14.58;79.98
25945;SHT31;13742;49.306;8.636;2023-05-07T04:47:08;14.61;80.73
25945;SHT31;13742;49.306;8.636;2023-05-07T04:48:09;14.64;80.56
25945;SHT31;13742;49.306;8.636;2023-05-07T04:49:08;14.67;80.69
25945;SHT31;13742;49.306;8.636;2023-05-07T04:50:09;14.67;80.73
25945;SHT31;13742;49.306;8.636;2023-05-07T04:51:08;14.67;79.79
25945;SHT31;13742;49.306;8.636;2023-05-07T04:52:08;14.69;79.32
25945;SHT31;13742;49.306;8.636;2023-05-07T04:53:08;14.67;80.47
25945;SHT31;13742;49.306;8.636;2023-05-07T04:54:08;14.69;80.39
25945;SHT31;13742;49.306;8.636;2023-05-07T04:55:08;14.71;79.49
25945;SHT31;13742;49.306;8.636;2023-05-07T04:56:08;14.74;79.70
25945;SHT31;13742;49.306;8.636;2023-05-07T04:57:08;14.75;79.40
25945;SHT31;13742;49.306;8.636;2023-05-07T04:58:08;14.75;79.40
25945;SHT31;13742;49.306;8.636;2023-05-07T04:59:08;14.79;78.86
25945;SHT31;13742;49.306;8.636;2023-05-07T05:00:09;14.78;79.01
25945;SHT31;13742;49.306;8.636;2023-05-07T05:01:08;14.79;79.02
25945;SHT31;13742;49.306;8.636;2023-05-07T05:02:08;14.83;79.15
25945;SHT31;13742;49.306;8.636;2023-05-07T05:03:08;14.83;79.12
25945;SHT31;13742;49.306;8.636;2023-05-07T05:04:08;14.85;79.00
25945;SHT31;13742;49.306;8.636;2023-05-07T05:05:08;14.86;79.74
25945;SHT31;13742;49.306;8.636;2023-05-07T05:06:09;14.86;78.74
25945;SHT31;13742;49.306;8.636;2023-05-07T05:07:08;14.88;78.39
25945;SHT31;13742;49.306;8.636;2023-05-07T05:08:08;14.92;79.15
25945;SHT31;13742;49.306;8.636;2023-05-07T05:09:08;14.93;78.76
25945;SHT31;13742;49.306;8.636;2023-05-07T05:10:08;14.93;78.46
25945;SHT31;13742;49.306;8.636;2023-05-07T05:11:08;14.93;78.32
25945;SHT31;13742;49.306;8.636;2023-05-07T05:12:08;14.98;77.93
25945;SHT31;13742;49.306;8.636;2023-05-07T05:13:08;14.98;78.33
25945;SHT31;13742;49.306;8.636;2023-05-07T05:14:08;15.00;78.53
25945;SHT31;13742;49.306;8.636;2023-05-07T05:15:09;14.99;78.23
25945;SHT31;13742;49.306;8.636;2023-05-07T05:16:08;15.00;77.99
25945;SHT31;13742;49.306;8.636;2023-05-07T05:17:08;14.98;77.69
25945;SHT31;13742;49.306;8.636;2023-05-07T05:18:08;15.00;77.50
25945;SHT31;13742;49.306;8.636;2023-05-07T05:19:08;15.02;77.26
25945;SHT31;13742;49.306;8.636;2023-05-07T05:20:09;15.03;77.33
25945;SHT31;13742;49.306;8.636;2023-05-07T05:21:08;15.03;77.45
25945;SHT31;13742;49.306;8.636;2023-05-07T05:22:08;15.03;77.37
25945;SHT31;13742;49.306;8.636;2023-05-07T05:23:08;15.06;77.44
25945;SHT31;13742;49.306;8.636;2023-05-07T05:24:08;15.07;77.25
25945;SHT31;13742;49.306;8.636;2023-05-07T05:25:08;15.10;78.78
25945;SHT31;13742;49.306;8.636;2023-05-07T05:26:08;15.11;78.59
25945;SHT31;13742;49.306;8.636;2023-05-07T05:27:08;15.13;78.57
25945;SHT31;13742;49.306;8.636;2023-05-07T05:28:08;15.11;78.49
25945;SHT31;13742;49.306;8.636;2023-05-07T05:29:08;15.14;78.21
25945;SHT31;13742;49.306;8.636;2023-05-07T05:30:08;15.11;78.33
25945;SHT31;13742;49.306;8.636;2023-05-07T05:31:08;15.06;78.29
25945;SHT31;13742;49.306;8.636;2023-05-07T05:32:08;15.09;77.84
25945;SHT31;13742;49.306;8.636;2023-05-07T05:33:08;15.10;78.15
25945;SHT31;13742;49.306;8.636;2023-05-07T05:34:08;15.13;78.22
25945;SHT31;13742;49.306;8.636;2023-05-07T05:35:08;15.14;78.32
25945;SHT31;13742;49.306;8.636;2023-05-07T05:36:11;15.17;78.41
25945;SHT31;13742;49.306;8.636;2023-05-07T05:37:08;15.20;78.43
25945;SHT31;13742;49.306;8.636;2023-05-07T05:38:08;15.21;78.11
25945;SHT31;13742;49.306;8.636;2023-05-07T05:39:08;15.24;77.36
25945;SHT31;13742;49.306;8.636;2023-05-07T05:40:08;15.29;77.02
25945;SHT31;13742;49.306;8.636;2023-05-07T05:41:08;15.29;76.67
25945;SHT31;13742;49.306;8.636;2023-05-07T05:42:08;15.36;76.21
25945;SHT31;13742;49.306;8.636;2023-05-07T05:43:08;15.36;75.46
25945;SHT31;13742;49.306;8.636;2023-05-07T05:44:08;15.36;75.37
25945;SHT31;13742;49.306;8.636;2023-05-07T05:45:08;15.41;75.21
25945;SHT31;13742;49.306;8.636;2023-05-07T05:46:23;15.41;74.79
25945;SHT31;13742;49.306;8.636;2023-05-07T05:47:08;15.48;74.50
25945;SHT31;13742;49.306;8.636;2023-05-07T05:48:08;15.47;74.51
25945;SHT31;13742;49.306;8.636;2023-05-07T05:49:08;15.48;74.60
25945;SHT31;13742;49.306;8.636;2023-05-07T05:50:08;15.51;74.57
25945;SHT31;13742;49.306;8.636;2023-05-07T05:51:08;15.53;74.33
25945;SHT31;13742;49.306;8.636;2023-05-07T05:52:08;15.57;74.23
25945;SHT31;13742;49.306;8.636;2023-05-07T05:53:08;15.58;74.24
25945;SHT31;13742;49.306;8.636;2023-05-07T05:54:08;15.60;74.20
25945;SHT31;13742;49.306;8.636;2023-05-07T05:55:08;15.62;73.94
25945;SHT31;13742;49.306;8.636;2023-05-07T05:56:08;15.70;73.91
25945;SHT31;13742;49.306;8.636;2023-05-07T05:57:08;15.70;73.74
25945;SHT31;13742;49.306;8.636;2023-05-07T05:58:08;15.70;73.43
25945;SHT31;13742;49.306;8.636;2023-05-07T05:59:08;15.77;73.47
25945;SHT31;13742;49.306;8.636;2023-05-07T06:00:09;15.79;73.48
25945;SHT31;13742;49.306;8.636;2023-05-07T06:01:08;15.84;72.72
25945;SHT31;13742;49.306;8.636;2023-05-07T06:02:08;15.88;72.27
25945;SHT31;13742;49.306;8.636;2023-05-07T06:03:08;15.88;72.47
25945;SHT31;13742;49.306;8.636;2023-05-07T06:04:08;15.92;72.40
25945;SHT31;13742;49.306;8.636;2023-05-07T06:05:08;15.96;72.45
25945;SHT31;13742;49.306;8.636;2023-05-07T06:06:08;15.96;72.48
25945;SHT31;13742;49.306;8.636;2023-05-07T06:07:08;15.99;72.44
25945;SHT31;13742;49.306;8.636;2023-05-07T06:08:08;16.05;72.17
25945;SHT31;13742;49.306;8.636;2023-05-07T06:09:08;16.05;72.24
25945;SHT31;13742;49.306;8.636;2023-05-07T06:10:08;16.08;71.78
25945;SHT31;13742;49.306;8.636;2023-05-07T06:11:08;16.12;71.27
25945;SHT31;13742;49.306;8.636;2023-05-07T06:12:08;16.15;71.05
25945;SHT31;13742;49.306;8.636;2023-05-07T06:13:08;16.15;71.49
25945;SHT31;13742;49.306;8.636;2023-05-07T06:14:08;16.18;71.41
25945;SHT31;13742;49.306;8.636;2023-05-07T06:15:08;16.19;71.22
25945;SHT31;13742;49.306;8.636;2023-05-07T06:16:08;16.20;71.36
25945;SHT31;13742;49.306;8.636;2023-05-07T06:17:08;16.22;71.07
25945;SHT31;13742;49.306;8.636;2023-05-07T06:18:08;16.26;70.80